sensor_id;sensor_type;location;lat;lon;timestamp;P1;durP1;ratioP1;P2;durP2;ratioP2
7791;SDS011;3940;49.892;10.886;2022-10-31T00:00:55;13.50;;;9.50;;
7791;SDS011;3940;49.892;10.886;2022-10-31T00:03:39;20.63;;;9.00;;
7791;SDS011;3940;49.892;10.886;2022-10-31T00:06:25;11.70;;;9.47;;
7791;SDS011;3940;49.892;10.886;2022-10-31T00:09:10;10.57;;;8.80;;
7791;SDS011;3940;49.892;10.886;2022-10-31T00:11:58;13.30;;;9.43;;
7791;SDS011;3940;49.892;10.886;2022-10-31T00:14:42;12.20;;;7.57;;
7791;SDS011;3940;49.892;10.886;2022-10-31T00:17:26;15.73;;;9.43;;
7791;SDS011;3940;49.892;10.886;2022-10-31T00:20:10;12.03;;;8.30;;
7791;SDS011;3940;49.892;10.886;2022-10-31T00:22:58;12.83;;;8.90;;
7791;SDS011;3940;49.892;10.886;2022-10-31T00:25:44;13.43;;;9.03;;
7791;SDS011;3940;49.892;10.886;2022-10-31T00:28:28;10.77;;;8.77;;
7791;SDS011;3940;49.892;10.886;2022-10-31T00:31:14;13.40;;;8.57;;
7791;SDS011;3940;49.892;10.886;2022-10-31T00:33:58;9.97;;;8.93;;
7791;SDS011;3940;49.892;10.886;2022-10-31T00:36:43;13.40;;;9.47;;
7791;SDS011;3940;49.892;10.886;2022-10-31T00:39:27;14.97;;;8.63;;
7791;SDS011;3940;49.892;10.886;2022-10-31T00:42:11;15.57;;;8.90;;
7791;SDS011;3940;49.892;10.886;2022-10-31T00:44:55;10.00;;;7.20;;
7791;SDS011;3940;49.892;10.886;2022-10-31T00:47:40;9.77;;;7.13;;
7791;SDS011;3940;49.892;10.886;2022-10-31T00:50:24;8.03;;;7.03;;
7791;SDS011;3940;49.892;10.886;2022-10-31T00:53:08;10.50;;;7.40;;
7791;SDS011;3940;49.892;10.886;2022-10-31T00:55:53;11.73;;;8.67;;
7791;SDS011;3940;49.892;10.886;2022-10-31T00:58:37;10.40;;;8.03;;
7791;SDS011;3940;49.892;10.886;2022-10-31T01:01:21;11.23;;;8.10;;
7791;SDS011;3940;49.892;10.886;2022-10-31T01:04:05;10.10;;;6.50;;
7791;SDS011;3940;49.892;10.886;2022-10-31T01:06:49;10.67;;;7.80;;
7791;SDS011;3940;49.892;10.886;2022-10-31T01:09:33;9.07;;;8.00;;
7791;SDS011;3940;49.892;10.886;2022-10-31T01:12:17;9.03;;;7.70;;
7791;SDS011;3940;49.892;10.886;2022-10-31T01:15:01;9.90;;;6.93;;
7791;SDS011;3940;49.892;10.886;2022-10-31T01:17:46;11.47;;;7.33;;
7791;SDS011;3940;49.892;10.886;2022-10-31T01:20:30;9.37;;;7.47;;
7791;SDS011;3940;49.892;10.886;2022-10-31T01:23:14;12.37;;;7.23;;
7791;SDS011;3940;49.892;10.886;2022-10-31T01:26:00;15.43;;;8.10;;
7791;SDS011;3940;49.892;10.886;2022-10-31T01:28:50;7.17;;;6.57;;
7791;SDS011;3940;49.892;10.886;2022-10-31T01:31:37;18.90;;;7.63;;
7791;SDS011;3940;49.892;10.886;2022-10-31T01:34:22;7.90;;;6.70;;
7791;SDS011;3940;49.892;10.886;2022-10-31T01:37:07;11.67;;;7.70;;
7791;SDS011;3940;49.892;10.886;2022-10-31T01:39:51;8.63;;;7.73;;
7791;SDS011;3940;49.892;10.886;2022-10-31T01:42:35;10.80;;;7.03;;
7791;SDS011;3940;49.892;10.886;2022-10-31T01:45:19;11.83;;;7.20;;
7791;SDS011;3940;49.892;10.886;2022-10-31T01:48:03;7.90;;;6.13;;
7791;SDS011;3940;49.892;10.886;2022-10-31T01:50:56;7.93;;;6.30;;
7791;SDS011;3940;49.892;10.886;2022-10-31T01:53:40;9.30;;;5.97;;
7791;SDS011;3940;49.892;10.886;2022-10-31T01:56:26;10.37;;;6.70;;
7791;SDS011;3940;49.892;10.886;2022-10-31T01:59:11;8.57;;;7.77;;
7791;SDS011;3940;49.892;10.886;2022-10-31T02:02:00;9.63;;;6.10;;
7791;SDS011;3940;49.892;10.886;2022-10-31T02:04:45;9.90;;;6.40;;
7791;SDS011;3940;49.892;10.886;2022-10-31T02:07:32;7.77;;;6.83;;
7791;SDS011;3940;49.892;10.886;2022-10-31T02:10:34;7.60;;;6.50;;
7791;SDS011;3940;49.892;10.886;2022-10-31T02:13:20;12.70;;;7.33;;
7791;SDS011;3940;49.892;10.886;2022-10-31T02:16:09;12.23;;;7.27;;
7791;SDS011;3940;49.892;10.886;2022-10-31T02:18:53;11.33;;;8.13;;
7791;SDS011;3940;49.892;10.886;2022-10-31T02:21:41;7.60;;;5.67;;
7791;SDS011;3940;49.892;10.886;2022-10-31T02:24:40;20.97;;;9.03;;
7791;SDS011;3940;49.892;10.886;2022-10-31T02:27:38;8.17;;;7.47;;
7791;SDS011;3940;49.892;10.886;2022-10-31T02:30:58;16.13;;;7.93;;
7791;SDS011;3940;49.892;10.886;2022-10-31T02:33:59;9.40;;;8.50;;
7791;SDS011;3940;49.892;10.886;2022-10-31T02:36:52;14.60;;;8.20;;
7791;SDS011;3940;49.892;10.886;2022-10-31T02:39:46;18.33;;;7.10;;
7791;SDS011;3940;49.892;10.886;2022-10-31T02:42:40;13.20;;;7.20;;
7791;SDS011;3940;49.892;10.886;2022-10-31T02:45:49;16.27;;;7.60;;
7791;SDS011;3940;49.892;10.886;2022-10-31T02:48:42;14.07;;;7.03;;
7791;SDS011;3940;49.892;10.886;2022-10-31T02:51:29;8.27;;;7.47;;
7791;SDS011;3940;49.892;10.886;2022-10-31T02:54:28;14.30;;;7.47;;
7791;SDS011;3940;49.892;10.886;2022-10-31T02:57:14;10.43;;;6.90;;
7791;SDS011;3940;49.892;10.886;2022-10-31T03:00:04;8.37;;;6.60;;
7791;SDS011;3940;49.892;10.886;2022-10-31T03:02:54;9.03;;;6.30;;
7791;SDS011;3940;49.892;10.886;2022-10-31T03:08:50;11.60;;;5.60;;
7791;SDS011;3940;49.892;10.886;2022-10-31T03:11:48;8.60;;;6.77;;
7791;SDS011;3940;49.892;10.886;2022-10-31T03:14:43;23.00;;;7.37;;
7791;SDS011;3940;49.892;10.886;2022-10-31T03:17:36;18.13;;;6.90;;
7791;SDS011;3940;49.892;10.886;2022-10-31T03:20:24;14.97;;;8.20;;
7791;SDS011;3940;49.892;10.886;2022-10-31T03:23:14;12.87;;;7.23;;
7791;SDS011;3940;49.892;10.886;2022-10-31T03:26:00;18.27;;;8.77;;
7791;SDS011;3940;49.892;10.886;2022-10-31T03:28:51;21.27;;;8.90;;
7791;SDS011;3940;49.892;10.886;2022-10-31T03:34:46;17.43;;;7.70;;
7791;SDS011;3940;49.892;10.886;2022-10-31T03:37:32;8.90;;;6.00;;
7791;SDS011;3940;49.892;10.886;2022-10-31T03:40:20;11.20;;;8.00;;
7791;SDS011;3940;49.892;10.886;2022-10-31T03:43:06;13.20;;;7.07;;
7791;SDS011;3940;49.892;10.886;2022-10-31T03:45:55;10.03;;;6.97;;
7791;SDS011;3940;49.892;10.886;2022-10-31T03:48:40;12.60;;;8.03;;
7791;SDS011;3940;49.892;10.886;2022-10-31T03:51:26;16.73;;;7.30;;
7791;SDS011;3940;49.892;10.886;2022-10-31T03:54:25;8.70;;;7.00;;
7791;SDS011;3940;49.892;10.886;2022-10-31T03:57:26;10.30;;;8.70;;
7791;SDS011;3940;49.892;10.886;2022-10-31T04:00:14;12.20;;;7.60;;
7791;SDS011;3940;49.892;10.886;2022-10-31T04:03:02;11.13;;;7.87;;
7791;SDS011;3940;49.892;10.886;2022-10-31T04:05:53;10.80;;;8.00;;
7791;SDS011;3940;49.892;10.886;2022-10-31T04:08:45;11.30;;;6.70;;
7791;SDS011;3940;49.892;10.886;2022-10-31T04:11:36;22.77;;;9.00;;
7791;SDS011;3940;49.892;10.886;2022-10-31T04:14:28;13.63;;;7.97;;
7791;SDS011;3940;49.892;10.886;2022-10-31T04:17:15;6.37;;;5.77;;
7791;SDS011;3940;49.892;10.886;2022-10-31T04:20:03;14.60;;;5.83;;
7791;SDS011;3940;49.892;10.886;2022-10-31T04:22:48;15.90;;;6.17;;
7791;SDS011;3940;49.892;10.886;2022-10-31T04:25:32;11.17;;;6.17;;
7791;SDS011;3940;49.892;10.886;2022-10-31T04:28:16;10.63;;;5.87;;
7791;SDS011;3940;49.892;10.886;2022-10-31T04:31:01;18.03;;;6.53;;
7791;SDS011;3940;49.892;10.886;2022-10-31T04:33:45;24.83;;;6.70;;
7791;SDS011;3940;49.892;10.886;2022-10-31T04:36:30;6.30;;;5.80;;
7791;SDS011;3940;49.892;10.886;2022-10-31T04:39:14;7.90;;;5.70;;
7791;SDS011;3940;49.892;10.886;2022-10-31T04:41:58;7.17;;;6.47;;
7791;SDS011;3940;49.892;10.886;2022-10-31T04:44:43;12.23;;;8.40;;
7791;SDS011;3940;49.892;10.886;2022-10-31T04:47:27;16.13;;;8.73;;
7791;SDS011;3940;49.892;10.886;2022-10-31T04:50:14;21.10;;;9.40;;
7791;SDS011;3940;49.892;10.886;2022-10-31T04:52:59;28.90;;;9.27;;
7791;SDS011;3940;49.892;10.886;2022-10-31T04:55:43;11.13;;;8.07;;
7791;SDS011;3940;49.892;10.886;2022-10-31T04:58:27;8.03;;;7.00;;
7791;SDS011;3940;49.892;10.886;2022-10-31T05:01:11;12.97;;;8.67;;
7791;SDS011;3940;49.892;10.886;2022-10-31T05:03:56;12.63;;;7.07;;
7791;SDS011;3940;49.892;10.886;2022-10-31T05:06:40;17.63;;;7.40;;
7791;SDS011;3940;49.892;10.886;2022-10-31T05:09:24;12.57;;;8.50;;
7791;SDS011;3940;49.892;10.886;2022-10-31T05:12:09;8.53;;;7.33;;
7791;SDS011;3940;49.892;10.886;2022-10-31T05:14:53;13.43;;;8.30;;
7791;SDS011;3940;49.892;10.886;2022-10-31T05:17:37;13.17;;;7.87;;
7791;SDS011;3940;49.892;10.886;2022-10-31T05:20:22;10.43;;;7.97;;
7791;SDS011;3940;49.892;10.886;2022-10-31T05:23:09;8.90;;;6.13;;
7791;SDS011;3940;49.892;10.886;2022-10-31T05:25:53;10.73;;;6.23;;
7791;SDS011;3940;49.892;10.886;2022-10-31T05:28:37;9.20;;;6.00;;
7791;SDS011;3940;49.892;10.886;2022-10-31T05:31:21;10.03;;;6.00;;
7791;SDS011;3940;49.892;10.886;2022-10-31T05:34:05;7.10;;;5.50;;
7791;SDS011;3940;49.892;10.886;2022-10-31T05:36:49;7.33;;;6.60;;
7791;SDS011;3940;49.892;10.886;2022-10-31T05:39:34;12.03;;;5.93;;
7791;SDS011;3940;49.892;10.886;2022-10-31T05:42:18;12.77;;;7.33;;
7791;SDS011;3940;49.892;10.886;2022-10-31T05:45:03;11.83;;;7.33;;
7791;SDS011;3940;49.892;10.886;2022-10-31T05:47:55;13.90;;;7.87;;
7791;SDS011;3940;49.892;10.886;2022-10-31T05:50:41;22.73;;;7.70;;
7791;SDS011;3940;49.892;10.886;2022-10-31T05:53:25;12.17;;;6.70;;
7791;SDS011;3940;49.892;10.886;2022-10-31T05:56:09;22.40;;;8.43;;
7791;SDS011;3940;49.892;10.886;2022-10-31T05:58:53;17.70;;;6.83;;
7791;SDS011;3940;49.892;10.886;2022-10-31T06:01:38;18.13;;;7.40;;
7791;SDS011;3940;49.892;10.886;2022-10-31T06:04:22;12.30;;;7.23;;
7791;SDS011;3940;49.892;10.886;2022-10-31T06:07:06;14.63;;;8.27;;
7791;SDS011;3940;49.892;10.886;2022-10-31T06:09:50;15.13;;;7.43;;
7791;SDS011;3940;49.892;10.886;2022-10-31T06:12:35;20.17;;;7.93;;
7791;SDS011;3940;49.892;10.886;2022-10-31T06:15:21;9.97;;;6.67;;
7791;SDS011;3940;49.892;10.886;2022-10-31T06:18:06;13.77;;;6.90;;
7791;SDS011;3940;49.892;10.886;2022-10-31T06:20:50;14.63;;;8.30;;
7791;SDS011;3940;49.892;10.886;2022-10-31T06:23:35;17.00;;;7.83;;
7791;SDS011;3940;49.892;10.886;2022-10-31T06:26:19;13.80;;;6.93;;
7791;SDS011;3940;49.892;10.886;2022-10-31T06:29:03;19.40;;;7.70;;
7791;SDS011;3940;49.892;10.886;2022-10-31T06:31:50;15.60;;;8.13;;
7791;SDS011;3940;49.892;10.886;2022-10-31T06:34:35;21.63;;;8.43;;
7791;SDS011;3940;49.892;10.886;2022-10-31T06:37:19;23.97;;;6.90;;
7791;SDS011;3940;49.892;10.886;2022-10-31T06:40:03;20.77;;;8.23;;
7791;SDS011;3940;49.892;10.886;2022-10-31T06:42:56;19.13;;;7.90;;
7791;SDS011;3940;49.892;10.886;2022-10-31T06:45:43;18.27;;;8.73;;
7791;SDS011;3940;49.892;10.886;2022-10-31T06:48:27;10.37;;;7.67;;
7791;SDS011;3940;49.892;10.886;2022-10-31T06:51:12;28.57;;;7.60;;
7791;SDS011;3940;49.892;10.886;2022-10-31T06:53:56;10.27;;;7.17;;
7791;SDS011;3940;49.892;10.886;2022-10-31T06:56:40;29.13;;;8.73;;
7791;SDS011;3940;49.892;10.886;2022-10-31T06:59:24;16.80;;;8.23;;
7791;SDS011;3940;49.892;10.886;2022-10-31T07:02:09;11.10;;;7.90;;
7791;SDS011;3940;49.892;10.886;2022-10-31T07:04:53;19.37;;;6.90;;
7791;SDS011;3940;49.892;10.886;2022-10-31T07:07:38;18.23;;;8.07;;
7791;SDS011;3940;49.892;10.886;2022-10-31T07:10:22;16.53;;;6.80;;
7791;SDS011;3940;49.892;10.886;2022-10-31T07:13:09;12.23;;;7.33;;
7791;SDS011;3940;49.892;10.886;2022-10-31T07:15:59;16.70;;;7.27;;
7791;SDS011;3940;49.892;10.886;2022-10-31T07:18:45;14.63;;;7.57;;
7791;SDS011;3940;49.892;10.886;2022-10-31T07:21:29;9.00;;;8.10;;
7791;SDS011;3940;49.892;10.886;2022-10-31T07:24:13;19.47;;;8.57;;
7791;SDS011;3940;49.892;10.886;2022-10-31T07:26:57;15.97;;;8.20;;
7791;SDS011;3940;49.892;10.886;2022-10-31T07:29:42;17.50;;;8.67;;
7791;SDS011;3940;49.892;10.886;2022-10-31T07:32:26;11.90;;;8.23;;
7791;SDS011;3940;49.892;10.886;2022-10-31T07:35:11;9.10;;;7.80;;
7791;SDS011;3940;49.892;10.886;2022-10-31T07:37:57;9.17;;;7.20;;
7791;SDS011;3940;49.892;10.886;2022-10-31T07:40:51;11.87;;;7.67;;
7791;SDS011;3940;49.892;10.886;2022-10-31T07:43:36;14.93;;;6.50;;
7791;SDS011;3940;49.892;10.886;2022-10-31T07:46:21;10.33;;;7.37;;
7791;SDS011;3940;49.892;10.886;2022-10-31T07:49:05;19.43;;;7.77;;
7791;SDS011;3940;49.892;10.886;2022-10-31T07:51:50;20.93;;;7.53;;
7791;SDS011;3940;49.892;10.886;2022-10-31T07:54:35;12.20;;;7.77;;
7791;SDS011;3940;49.892;10.886;2022-10-31T07:57:19;14.87;;;8.43;;
7791;SDS011;3940;49.892;10.886;2022-10-31T08:00:04;9.70;;;7.40;;
7791;SDS011;3940;49.892;10.886;2022-10-31T08:02:56;10.60;;;7.50;;
7791;SDS011;3940;49.892;10.886;2022-10-31T08:05:42;15.27;;;8.43;;
7791;SDS011;3940;49.892;10.886;2022-10-31T08:08:28;11.47;;;7.90;;
7791;SDS011;3940;49.892;10.886;2022-10-31T08:11:13;13.23;;;8.73;;
7791;SDS011;3940;49.892;10.886;2022-10-31T08:13:57;17.00;;;9.30;;
7791;SDS011;3940;49.892;10.886;2022-10-31T08:16:41;13.63;;;8.20;;
7791;SDS011;3940;49.892;10.886;2022-10-31T08:19:26;13.60;;;9.03;;
7791;SDS011;3940;49.892;10.886;2022-10-31T08:22:10;13.07;;;8.57;;
7791;SDS011;3940;49.892;10.886;2022-10-31T08:24:54;16.53;;;7.40;;
7791;SDS011;3940;49.892;10.886;2022-10-31T08:27:38;12.67;;;9.87;;
7791;SDS011;3940;49.892;10.886;2022-10-31T08:30:24;15.83;;;7.63;;
7791;SDS011;3940;49.892;10.886;2022-10-31T08:33:11;16.97;;;9.40;;
7791;SDS011;3940;49.892;10.886;2022-10-31T08:35:58;9.83;;;7.30;;
7791;SDS011;3940;49.892;10.886;2022-10-31T08:38:42;13.70;;;8.50;;
7791;SDS011;3940;49.892;10.886;2022-10-31T08:41:26;14.20;;;9.27;;
7791;SDS011;3940;49.892;10.886;2022-10-31T08:44:11;13.10;;;9.07;;
7791;SDS011;3940;49.892;10.886;2022-10-31T08:46:55;13.07;;;7.87;;
7791;SDS011;3940;49.892;10.886;2022-10-31T08:49:39;15.80;;;8.30;;
7791;SDS011;3940;49.892;10.886;2022-10-31T08:52:23;13.30;;;7.80;;
7791;SDS011;3940;49.892;10.886;2022-10-31T08:55:09;10.40;;;9.10;;
7791;SDS011;3940;49.892;10.886;2022-10-31T08:57:55;9.43;;;7.10;;
7791;SDS011;3940;49.892;10.886;2022-10-31T09:00:41;11.53;;;7.43;;
7791;SDS011;3940;49.892;10.886;2022-10-31T09:03:27;11.00;;;7.97;;
7791;SDS011;3940;49.892;10.886;2022-10-31T09:06:13;12.20;;;7.90;;
7791;SDS011;3940;49.892;10.886;2022-10-31T09:08:57;9.10;;;8.17;;
7791;SDS011;3940;49.892;10.886;2022-10-31T09:11:41;15.70;;;8.23;;
7791;SDS011;3940;49.892;10.886;2022-10-31T09:14:25;20.63;;;7.70;;
7791;SDS011;3940;49.892;10.886;2022-10-31T09:17:10;13.67;;;8.80;;
7791;SDS011;3940;49.892;10.886;2022-10-31T09:19:54;10.57;;;6.97;;
7791;SDS011;3940;49.892;10.886;2022-10-31T09:22:39;10.13;;;8.60;;
7791;SDS011;3940;49.892;10.886;2022-10-31T09:25:23;11.00;;;7.63;;
7791;SDS011;3940;49.892;10.886;2022-10-31T09:28:08;10.17;;;6.70;;
7791;SDS011;3940;49.892;10.886;2022-10-31T09:30:55;9.67;;;8.13;;
7791;SDS011;3940;49.892;10.886;2022-10-31T09:33:39;19.47;;;10.20;;
7791;SDS011;3940;49.892;10.886;2022-10-31T09:36:26;11.63;;;8.63;;
7791;SDS011;3940;49.892;10.886;2022-10-31T09:39:10;11.77;;;9.30;;
7791;SDS011;3940;49.892;10.886;2022-10-31T09:42:00;14.47;;;7.57;;
7791;SDS011;3940;49.892;10.886;2022-10-31T09:45:05;15.10;;;9.37;;
7791;SDS011;3940;49.892;10.886;2022-10-31T09:48:15;20.23;;;11.43;;
7791;SDS011;3940;49.892;10.886;2022-10-31T09:51:08;19.73;;;9.93;;
7791;SDS011;3940;49.892;10.886;2022-10-31T09:54:00;16.50;;;10.77;;
7791;SDS011;3940;49.892;10.886;2022-10-31T09:57:05;17.83;;;11.23;;
7791;SDS011;3940;49.892;10.886;2022-10-31T09:59:59;19.67;;;9.47;;
7791;SDS011;3940;49.892;10.886;2022-10-31T10:03:04;12.83;;;9.50;;
7791;SDS011;3940;49.892;10.886;2022-10-31T10:06:04;10.17;;;9.20;;
7791;SDS011;3940;49.892;10.886;2022-10-31T10:08:57;14.57;;;11.10;;
7791;SDS011;3940;49.892;10.886;2022-10-31T10:18:02;16.07;;;11.10;;
7791;SDS011;3940;49.892;10.886;2022-10-31T10:21:05;10.07;;;8.97;;
7791;SDS011;3940;49.892;10.886;2022-10-31T10:24:32;14.57;;;10.97;;
7791;SDS011;3940;49.892;10.886;2022-10-31T10:27:41;14.63;;;10.00;;
7791;SDS011;3940;49.892;10.886;2022-10-31T10:30:39;11.17;;;10.00;;
7791;SDS011;3940;49.892;10.886;2022-10-31T10:33:33;15.87;;;10.97;;
7791;SDS011;3940;49.892;10.886;2022-10-31T10:36:41;13.10;;;10.90;;
7791;SDS011;3940;49.892;10.886;2022-10-31T10:39:36;13.17;;;10.80;;
7791;SDS011;3940;49.892;10.886;2022-10-31T10:42:24;12.40;;;10.13;;
7791;SDS011;3940;49.892;10.886;2022-10-31T10:45:24;11.93;;;10.60;;
7791;SDS011;3940;49.892;10.886;2022-10-31T10:51:38;12.93;;;9.90;;
7791;SDS011;3940;49.892;10.886;2022-10-31T10:54:34;15.53;;;10.43;;
7791;SDS011;3940;49.892;10.886;2022-10-31T10:57:41;11.97;;;10.70;;
7791;SDS011;3940;49.892;10.886;2022-10-31T11:00:43;13.80;;;9.70;;
7791;SDS011;3940;49.892;10.886;2022-10-31T11:03:30;14.07;;;10.03;;
7791;SDS011;3940;49.892;10.886;2022-10-31T11:06:22;10.77;;;9.67;;
7791;SDS011;3940;49.892;10.886;2022-10-31T11:09:09;9.97;;;9.07;;
7791;SDS011;3940;49.892;10.886;2022-10-31T11:11:54;9.80;;;8.77;;
7791;SDS011;3940;49.892;10.886;2022-10-31T11:17:37;11.23;;;9.80;;
7791;SDS011;3940;49.892;10.886;2022-10-31T11:20:26;11.50;;;8.80;;
7791;SDS011;3940;49.892;10.886;2022-10-31T11:23:17;10.43;;;8.80;;
7791;SDS011;3940;49.892;10.886;2022-10-31T11:26:04;12.60;;;9.37;;
7791;SDS011;3940;49.892;10.886;2022-10-31T11:28:57;10.43;;;9.50;;
7791;SDS011;3940;49.892;10.886;2022-10-31T11:31:43;9.40;;;8.53;;
7791;SDS011;3940;49.892;10.886;2022-10-31T11:34:30;10.40;;;9.40;;
7791;SDS011;3940;49.892;10.886;2022-10-31T11:37:21;9.13;;;8.30;;
7791;SDS011;3940;49.892;10.886;2022-10-31T11:40:16;9.30;;;8.47;;
7791;SDS011;3940;49.892;10.886;2022-10-31T11:43:12;10.27;;;8.93;;
7791;SDS011;3940;49.892;10.886;2022-10-31T11:46:07;10.60;;;8.53;;
7791;SDS011;3940;49.892;10.886;2022-10-31T11:48:54;9.77;;;8.87;;
7791;SDS011;3940;49.892;10.886;2022-10-31T11:51:39;9.73;;;8.80;;
7791;SDS011;3940;49.892;10.886;2022-10-31T11:54:26;9.30;;;8.40;;
7791;SDS011;3940;49.892;10.886;2022-10-31T12:06:26;15.03;;;11.23;;
7791;SDS011;3940;49.892;10.886;2022-10-31T12:09:18;12.73;;;10.23;;
7791;SDS011;3940;49.892;10.886;2022-10-31T12:18:24;11.90;;;10.50;;
7791;SDS011;3940;49.892;10.886;2022-10-31T12:21:26;13.13;;;11.43;;
7791;SDS011;3940;49.892;10.886;2022-10-31T12:24:26;17.03;;;10.13;;
7791;SDS011;3940;49.892;10.886;2022-10-31T12:27:27;12.13;;;10.80;;
7791;SDS011;3940;49.892;10.886;2022-10-31T12:30:22;14.80;;;12.03;;
7791;SDS011;3940;49.892;10.886;2022-10-31T12:40:01;13.23;;;10.33;;
7791;SDS011;3940;49.892;10.886;2022-10-31T12:43:01;14.20;;;10.77;;
7791;SDS011;3940;49.892;10.886;2022-10-31T12:45:59;14.60;;;11.07;;
7791;SDS011;3940;49.892;10.886;2022-10-31T12:48:49;13.63;;;12.17;;
7791;SDS011;3940;49.892;10.886;2022-10-31T12:52:00;16.63;;;10.00;;
7791;SDS011;3940;49.892;10.886;2022-10-31T12:55:02;13.17;;;10.50;;
7791;SDS011;3940;49.892;10.886;2022-10-31T12:58:01;11.40;;;10.33;;
7791;SDS011;3940;49.892;10.886;2022-10-31T13:00:58;14.67;;;9.10;;
7791;SDS011;3940;49.892;10.886;2022-10-31T13:04:12;18.43;;;10.63;;
7791;SDS011;3940;49.892;10.886;2022-10-31T13:07:03;18.93;;;12.43;;
7791;SDS011;3940;49.892;10.886;2022-10-31T13:09:56;10.83;;;9.63;;
7791;SDS011;3940;49.892;10.886;2022-10-31T13:13:10;9.77;;;8.77;;
7791;SDS011;3940;49.892;10.886;2022-10-31T13:16:01;14.63;;;10.50;;
7791;SDS011;3940;49.892;10.886;2022-10-31T13:18:54;13.93;;;11.07;;
7791;SDS011;3940;49.892;10.886;2022-10-31T13:21:51;11.03;;;10.00;;
7791;SDS011;3940;49.892;10.886;2022-10-31T13:24:59;11.93;;;9.43;;
7791;SDS011;3940;49.892;10.886;2022-10-31T13:28:24;15.70;;;9.70;;
7791;SDS011;3940;49.892;10.886;2022-10-31T13:31:30;15.83;;;11.00;;
7791;SDS011;3940;49.892;10.886;2022-10-31T13:34:19;12.50;;;9.53;;
7791;SDS011;3940;49.892;10.886;2022-10-31T13:37:17;11.70;;;10.13;;
7791;SDS011;3940;49.892;10.886;2022-10-31T13:40:24;14.30;;;10.30;;
7791;SDS011;3940;49.892;10.886;2022-10-31T13:46:25;13.37;;;10.27;;
7791;SDS011;3940;49.892;10.886;2022-10-31T13:49:25;14.40;;;11.10;;
7791;SDS011;3940;49.892;10.886;2022-10-31T13:52:22;12.27;;;9.83;;
7791;SDS011;3940;49.892;10.886;2022-10-31T13:55:33;11.27;;;10.17;;
7791;SDS011;3940;49.892;10.886;2022-10-31T13:58:30;11.37;;;9.93;;
7791;SDS011;3940;49.892;10.886;2022-10-31T14:01:19;13.00;;;9.10;;
7791;SDS011;3940;49.892;10.886;2022-10-31T14:04:06;11.13;;;9.97;;
7791;SDS011;3940;49.892;10.886;2022-10-31T14:07:05;12.53;;;10.77;;
7791;SDS011;3940;49.892;10.886;2022-10-31T14:10:02;15.50;;;9.63;;
7791;SDS011;3940;49.892;10.886;2022-10-31T14:12:52;14.60;;;10.30;;
7791;SDS011;3940;49.892;10.886;2022-10-31T14:19:15;13.87;;;10.90;;
7791;SDS011;3940;49.892;10.886;2022-10-31T14:22:02;13.00;;;10.43;;
7791;SDS011;3940;49.892;10.886;2022-10-31T14:24:46;11.23;;;10.20;;
7791;SDS011;3940;49.892;10.886;2022-10-31T14:27:32;12.57;;;11.13;;
7791;SDS011;3940;49.892;10.886;2022-10-31T14:30:19;14.60;;;11.80;;
7791;SDS011;3940;49.892;10.886;2022-10-31T14:33:16;11.50;;;10.30;;
7791;SDS011;3940;49.892;10.886;2022-10-31T14:36:08;15.77;;;11.23;;
7791;SDS011;3940;49.892;10.886;2022-10-31T14:39:02;12.73;;;11.13;;
7791;SDS011;3940;49.892;10.886;2022-10-31T14:51:49;16.20;;;11.70;;
7791;SDS011;3940;49.892;10.886;2022-10-31T14:54:38;14.73;;;12.23;;
7791;SDS011;3940;49.892;10.886;2022-10-31T14:57:28;12.20;;;10.50;;
7791;SDS011;3940;49.892;10.886;2022-10-31T15:00:17;22.63;;;12.03;;
7791;SDS011;3940;49.892;10.886;2022-10-31T15:03:22;14.80;;;11.23;;
7791;SDS011;3940;49.892;10.886;2022-10-31T15:06:21;13.13;;;11.10;;
7791;SDS011;3940;49.892;10.886;2022-10-31T15:09:19;12.50;;;10.80;;
7791;SDS011;3940;49.892;10.886;2022-10-31T15:12:25;13.47;;;11.83;;
7791;SDS011;3940;49.892;10.886;2022-10-31T15:15:13;13.47;;;9.80;;
7791;SDS011;3940;49.892;10.886;2022-10-31T15:18:01;16.17;;;12.00;;
7791;SDS011;3940;49.892;10.886;2022-10-31T15:20:48;15.00;;;12.47;;
7791;SDS011;3940;49.892;10.886;2022-10-31T15:23:35;12.90;;;11.10;;
7791;SDS011;3940;49.892;10.886;2022-10-31T15:26:20;12.87;;;10.93;;
7791;SDS011;3940;49.892;10.886;2022-10-31T15:29:15;15.30;;;11.00;;
7791;SDS011;3940;49.892;10.886;2022-10-31T15:32:18;16.33;;;10.30;;
7791;SDS011;3940;49.892;10.886;2022-10-31T15:35:09;16.73;;;11.97;;
7791;SDS011;3940;49.892;10.886;2022-10-31T15:37:54;15.10;;;12.57;;
7791;SDS011;3940;49.892;10.886;2022-10-31T15:40:40;22.30;;;15.03;;
7791;SDS011;3940;49.892;10.886;2022-10-31T15:43:37;21.00;;;14.30;;
7791;SDS011;3940;49.892;10.886;2022-10-31T15:46:22;16.60;;;13.33;;
7791;SDS011;3940;49.892;10.886;2022-10-31T15:52:12;19.57;;;12.50;;
7791;SDS011;3940;49.892;10.886;2022-10-31T15:55:19;17.13;;;12.60;;
7791;SDS011;3940;49.892;10.886;2022-10-31T15:58:10;19.40;;;13.63;;
7791;SDS011;3940;49.892;10.886;2022-10-31T16:01:00;16.80;;;14.90;;
7791;SDS011;3940;49.892;10.886;2022-10-31T16:04:00;14.40;;;11.37;;
7791;SDS011;3940;49.892;10.886;2022-10-31T16:07:13;19.47;;;16.00;;
7791;SDS011;3940;49.892;10.886;2022-10-31T16:10:01;22.50;;;14.40;;
7791;SDS011;3940;49.892;10.886;2022-10-31T16:12:48;21.10;;;14.87;;
7791;SDS011;3940;49.892;10.886;2022-10-31T16:15:48;20.10;;;13.57;;
7791;SDS011;3940;49.892;10.886;2022-10-31T16:18:44;18.40;;;11.10;;
7791;SDS011;3940;49.892;10.886;2022-10-31T16:21:32;19.80;;;14.47;;
7791;SDS011;3940;49.892;10.886;2022-10-31T16:24:21;34.70;;;23.70;;
7791;SDS011;3940;49.892;10.886;2022-10-31T16:27:17;18.83;;;15.40;;
7791;SDS011;3940;49.892;10.886;2022-10-31T16:30:26;29.23;;;22.73;;
7791;SDS011;3940;49.892;10.886;2022-10-31T16:36:34;27.27;;;19.17;;
7791;SDS011;3940;49.892;10.886;2022-10-31T16:39:22;17.30;;;13.93;;
7791;SDS011;3940;49.892;10.886;2022-10-31T16:42:07;20.57;;;12.83;;
7791;SDS011;3940;49.892;10.886;2022-10-31T16:44:53;16.60;;;14.90;;
7791;SDS011;3940;49.892;10.886;2022-10-31T16:47:38;61.40;;;43.60;;
7791;SDS011;3940;49.892;10.886;2022-10-31T16:50:24;20.97;;;14.37;;
7791;SDS011;3940;49.892;10.886;2022-10-31T16:53:10;20.53;;;14.43;;
7791;SDS011;3940;49.892;10.886;2022-10-31T16:55:55;19.93;;;13.77;;
7791;SDS011;3940;49.892;10.886;2022-10-31T16:58:41;19.00;;;14.90;;
7791;SDS011;3940;49.892;10.886;2022-10-31T17:01:26;19.03;;;14.17;;
7791;SDS011;3940;49.892;10.886;2022-10-31T17:04:12;15.07;;;13.67;;
7791;SDS011;3940;49.892;10.886;2022-10-31T17:06:58;23.40;;;13.50;;
7791;SDS011;3940;49.892;10.886;2022-10-31T17:09:41;14.60;;;12.17;;
7791;SDS011;3940;49.892;10.886;2022-10-31T17:12:26;26.40;;;16.30;;
7791;SDS011;3940;49.892;10.886;2022-10-31T17:15:26;18.13;;;14.50;;
7791;SDS011;3940;49.892;10.886;2022-10-31T17:18:13;19.33;;;16.43;;
7791;SDS011;3940;49.892;10.886;2022-10-31T17:21:01;19.73;;;14.23;;
7791;SDS011;3940;49.892;10.886;2022-10-31T17:23:47;24.70;;;18.23;;
7791;SDS011;3940;49.892;10.886;2022-10-31T17:26:32;23.67;;;19.30;;
7791;SDS011;3940;49.892;10.886;2022-10-31T17:29:16;26.97;;;16.43;;
7791;SDS011;3940;49.892;10.886;2022-10-31T17:32:01;24.90;;;16.60;;
7791;SDS011;3940;49.892;10.886;2022-10-31T17:34:46;23.97;;;18.10;;
7791;SDS011;3940;49.892;10.886;2022-10-31T17:37:31;26.10;;;19.80;;
7791;SDS011;3940;49.892;10.886;2022-10-31T17:40:16;21.20;;;17.43;;
7791;SDS011;3940;49.892;10.886;2022-10-31T17:43:02;19.67;;;15.70;;
7791;SDS011;3940;49.892;10.886;2022-10-31T17:45:47;25.13;;;17.53;;
7791;SDS011;3940;49.892;10.886;2022-10-31T17:48:32;22.07;;;16.43;;
7791;SDS011;3940;49.892;10.886;2022-10-31T17:51:17;20.33;;;16.50;;
7791;SDS011;3940;49.892;10.886;2022-10-31T17:54:02;26.07;;;17.07;;
7791;SDS011;3940;49.892;10.886;2022-10-31T17:56:48;17.57;;;15.27;;
7791;SDS011;3940;49.892;10.886;2022-10-31T17:59:32;22.63;;;16.87;;
7791;SDS011;3940;49.892;10.886;2022-10-31T18:02:17;22.17;;;15.00;;